Time;durP1;ratioP1;P1;durP2;ratioP2;P2;SDS_P1;SDS_P2;PMS_P1;PMS_P2;Temp;Humidity;BMP_temperature;BMP_pressure;BME280_temperature;BME280_humidity;BME280_pressure;Samples;Min_cycle;Max_cycle;Signal;HPM_P1;HPM_P2
2022/02/05 00:01:05;;;;;;;46.00;24.18;;;;;;;-3.85;52.60;100563.88;1740977;81;21030;-56
2022/02/05 00:03:37;;;;;;;43.90;23.40;;;;;;;-3.87;52.79;100561.77;1715256;82;21145;-56
2022/02/05 00:06:02;;;;;;;48.87;25.40;;;;;;;-3.82;52.93;100571.53;1741096;81;21062;-56
2022/02/05 00:08:54;;;;;;;45.05;24.90;;;;;;;-3.77;53.30;100574.87;1699411;82;21041;-56
2022/02/05 00:12:22;;;;;;;44.30;23.57;;;;;;;-3.66;53.33;100574.70;1707706;83;21205;-56
2022/02/05 00:41:19;;;;;;;32.40;19.65;;;;;;;-3.17;54.19;100527.41;1733242;80;21077;-56
2022/02/05 00:43:44;;;;;;;31.77;17.73;;;;;;;-3.14;54.21;100514.89;1713161;81;21110;-56
2022/02/05 00:46:08;;;;;;;37.08;19.00;;;;;;;-3.08;54.44;100510.91;1712840;82;21575;-56
2022/02/05 00:48:34;;;;;;;30.92;19.60;;;;;;;-3.02;54.64;100514.66;1743058;80;21470;-56
2022/02/05 00:51:12;;;;;;;36.93;21.48;;;;;;;-2.95;54.61;100516.66;1698459;81;22153;-57
2022/02/05 00:53:34;;;;;;;28.67;17.45;;;;;;;-2.94;54.51;100517.91;1708856;80;21786;-56
2022/02/05 00:56:07;;;;;;;31.60;18.98;;;;;;;-2.94;54.27;100515.34;1724772;81;21078;-56
2022/02/05 00:58:27;;;;;;;36.75;19.10;;;;;;;-2.95;53.99;100520.52;1695555;82;21079;-56
2022/02/05 01:00:54;;;;;;;36.00;18.32;;;;;;;-3.04;53.70;100505.67;1713638;81;21871;-56
2022/02/05 01:03:20;;;;;;;27.05;15.98;;;;;;;-3.09;53.75;100520.79;1737022;80;21160;-56
2022/02/05 01:05:49;;;;;;;33.60;17.35;;;;;;;-3.10;53.82;100520.41;1735302;80;21048;-57
2022/02/05 01:08:16;;;;;;;28.35;15.70;;;;;;;-3.13;53.96;100513.58;1734960;81;21040;-57
2022/02/05 01:10:43;;;;;;;26.95;15.65;;;;;;;-3.17;54.20;100521.81;1692016;82;21028;-56
2022/02/05 01:13:11;;;;;;;25.88;14.35;;;;;;;-3.19;54.53;100514.57;1747937;80;21132;-57
2022/02/05 01:15:52;;;;;;;33.13;15.58;;;;;;;-3.13;54.77;100511.45;1757026;80;21616;-57
2022/02/05 01:18:13;;;;;;;25.77;14.83;;;;;;;-3.08;54.77;100510.91;1758164;80;21765;-56
2022/02/05 01:23:10;;;;;;;27.20;17.30;;;;;;;-2.96;55.09;100498.21;1725088;81;21046;-57
2022/02/05 01:25:40;;;;;;;30.40;15.98;;;;;;;-2.89;55.04;100498.05;1756974;80;21073;-56
2022/02/05 01:28:12;;;;;;;27.00;15.83;;;;;;;-2.84;55.01;100501.37;1752121;80;21587;-56
2022/02/05 01:30:37;;;;;;;38.38;16.25;;;;;;;-2.76;55.01;100500.34;1755363;79;21062;-57
2022/02/05 01:36:05;;;;;;;23.43;14.50;;;;;;;-2.57;55.03;100494.30;1750941;80;20998;-57
2022/02/05 01:52:20;;;;;;;25.48;13.20;;;;;;;-2.44;55.51;100503.42;1750990;80;21544;-58
2022/02/05 01:55:08;;;;;;;23.65;12.65;;;;;;;-2.40;55.45;100497.75;1722175;80;21048;-57
2022/02/05 01:57:34;;;;;;;27.30;13.00;;;;;;;-2.37;55.57;100500.26;1713344;81;21053;-57
2022/02/05 02:04:47;;;;;;;27.85;14.05;;;;;;;-2.34;55.67;100497.16;1750552;80;21060;-58
2022/02/05 02:05:10;;;;;;;18.13;12.23;;;;;;;-2.28;55.66;100499.59;1757983;80;21037;-57
2022/02/05 02:10:44;;;;;;;21.45;12.45;;;;;;;-2.22;55.80;100495.16;1747458;81;21044;-56
2022/02/05 02:18:34;;;;;;;20.68;12.13;;;;;;;-1.95;55.88;100483.28;1760057;79;21128;-56
2022/02/05 02:28:24;;;;;;;19.00;8.73;;;;;;;-1.70;55.92;100470.56;1749833;81;21018;-57
2022/02/05 02:30:58;;;;;;;24.05;10.08;;;;;;;-1.69;56.06;100478.27;1749147;81;21096;-57
2022/02/05 02:33:29;;;;;;;14.10;8.15;;;;;;;-1.62;56.12;100480.68;1723852;79;21575;-57
2022/02/05 02:35:49;;;;;;;20.95;9.63;;;;;;;-1.56;55.93;100476.65;1755333;80;21076;-57
2022/02/05 02:38:20;;;;;;;16.65;9.40;;;;;;;-1.48;55.97;100481.12;1757090;79;21902;-57
2022/02/05 02:42:19;;;;;;;13.93;8.23;;;;;;;-1.53;56.26;100476.53;1751578;79;22964;-58
2022/02/05 02:44:45;;;;;;;17.90;9.13;;;;;;;-1.38;55.65;100487.73;1722025;81;21008;-60
2022/02/05 02:47:12;;;;;;;16.85;8.98;;;;;;;-1.33;55.49;100478.12;1701104;82;21142;-59
2022/02/05 02:49:57;;;;;;;14.20;9.03;;;;;;;-1.27;55.37;100472.38;1726658;81;21059;-59
2022/02/05 02:57:54;;;;;;;20.12;9.58;;;;;;;-1.18;55.17;100463.05;1717766;81;21035;-60
2022/02/05 03:00:19;;;;;;;16.02;9.00;;;;;;;-1.13;55.02;100455.58;1696707;82;21934;-59
2022/02/05 03:02:46;;;;;;;16.37;9.28;;;;;;;-1.06;54.70;100454.95;1723907;82;21068;-59
2022/02/05 03:05:13;;;;;;;14.63;9.30;;;;;;;-1.03;54.38;100448.37;1719589;81;21087;-59
2022/02/05 03:07:40;;;;;;;18.20;9.20;;;;;;;-1.02;54.05;100447.48;1724025;81;21059;-58
2022/02/05 03:10:07;;;;;;;14.10;10.23;;;;;;;-1.02;54.05;100447.48;1716391;82;21091;-59
2022/02/05 03:12:37;;;;;;;18.87;8.85;;;;;;;-0.97;53.86;100433.14;1722055;82;21144;-59
2022/02/05 03:15:06;;;;;;;18.12;9.88;;;;;;;-0.97;53.86;100433.14;1720660;81;21088;-60
2022/02/05 03:17:39;;;;;;;18.55;9.55;;;;;;;-0.96;53.57;100430.52;1727315;81;21091;-58
2022/02/05 03:20:02;;;;;;;18.45;10.93;;;;;;;-0.94;53.73;100427.44;1720088;82;20996;-58
2022/02/05 03:22:28;;;;;;;14.70;10.08;;;;;;;-0.85;53.43;100431.91;1718767;81;21086;-59
2022/02/05 03:24:55;;;;;;;17.77;11.30;;;;;;;-0.81;53.28;100433.48;1717757;81;21135;-59
2022/02/05 03:27:22;;;;;;;15.25;9.83;;;;;;;-0.66;52.75;100431.69;1699928;82;21091;-58
2022/02/05 03:29:50;;;;;;;16.52;10.53;;;;;;;-0.66;52.75;100431.69;1720273;81;21129;-58
2022/02/05 03:32:18;;;;;;;20.10;10.70;;;;;;;-0.60;52.84;100422.45;1718705;81;21075;-58
2022/02/05 03:34:44;;;;;;;14.63;9.20;;;;;;;-0.60;52.84;100422.45;1725860;81;21604;-58
2022/02/05 03:37:11;;;;;;;17.37;10.25;;;;;;;-0.51;52.47;100418.71;1718124;82;23306;-58
2022/02/05 03:39:38;;;;;;;19.80;10.58;;;;;;;-0.51;52.47;100418.71;1717673;81;21441;-59
2022/02/05 03:42:05;;;;;;;19.75;11.53;;;;;;;-0.47;52.32;100426.78;1718284;81;22215;-58
2022/02/05 03:44:32;;;;;;;17.42;11.05;;;;;;;-0.45;52.30;100429.31;1721905;81;21071;-58
2022/02/05 03:46:59;;;;;;;16.85;8.90;;;;;;;-0.43;52.11;100428.80;1720012;81;21110;-58
2022/02/05 03:49:26;;;;;;;20.72;11.75;;;;;;;-0.44;52.03;100429.27;1724705;81;21198;-58
2022/02/05 03:51:53;;;;;;;20.90;11.20;;;;;;;-0.46;52.04;100423.73;1718767;81;21079;-58
2022/02/05 03:54:21;;;;;;;20.55;11.55;;;;;;;-0.47;52.09;100422.03;1720935;82;21555;-58
2022/02/05 03:56:48;;;;;;;22.30;10.38;;;;;;;-0.47;52.09;100422.03;1718220;81;21543;-59
2022/02/05 03:59:15;;;;;;;20.65;12.23;;;;;;;-0.48;51.95;100422.95;1711079;82;21067;-58
2022/02/05 04:01:42;;;;;;;23.55;13.85;;;;;;;-0.51;51.95;100416.59;1687762;82;21117;-58
2022/02/05 04:04:09;;;;;;;23.65;13.35;;;;;;;-0.49;51.93;100418.66;1720683;81;21130;-59
2022/02/05 04:06:36;;;;;;;17.17;10.32;;;;;;;-0.49;51.93;100418.66;1726666;82;21650;-59
2022/02/05 04:09:07;;;;;;;22.98;11.30;;;;;;;-0.47;51.81;100424.62;1727472;81;21095;-59
2022/02/05 04:16:50;;;;;;;15.20;9.20;;;;;;;-0.28;51.66;100411.93;1723738;81;21653;-58
2022/02/05 04:19:16;;;;;;;16.20;9.20;;;;;;;-0.28;51.66;100411.93;1713007;82;21055;-57
2022/02/05 04:21:43;;;;;;;17.70;9.33;;;;;;;-0.29;51.48;100407.64;1727171;81;21021;-58
2022/02/05 04:24:10;;;;;;;13.32;8.03;;;;;;;-0.25;51.34;100410.08;1697273;81;21063;-58
2022/02/05 04:26:38;;;;;;;12.88;8.05;;;;;;;-0.25;51.34;100410.08;1718580;81;21060;-58
2022/02/05 04:29:10;;;;;;;13.13;8.30;;;;;;;-0.22;51.18;100404.80;1720606;81;21106;-58
2022/02/05 04:31:38;;;;;;;11.93;7.50;;;;;;;-0.24;51.19;100401.41;1708254;82;21067;-58
2022/02/05 04:34:07;;;;;;;18.40;8.50;;;;;;;-0.19;51.30;100404.67;1700893;82;21066;-59
2022/02/05 04:36:36;;;;;;;10.88;6.55;;;;;;;-0.16;51.05;100395.97;1716357;81;21047;-58
2022/02/05 04:39:12;;;;;;;15.90;8.40;;;;;;;-0.17;50.81;100395.56;1724175;81;21226;-59
2022/02/05 04:41:50;;;;;;;13.50;8.40;;;;;;;-0.17;50.81;100395.56;1703032;82;21477;-59
2022/02/05 04:49:27;;;;;;;14.23;8.10;;;;;;;-0.10;50.81;100392.31;1716709;82;21059;-59
2022/02/05 04:51:59;;;;;;;14.03;7.12;;;;;;;-0.04;50.69;100397.28;1694096;82;21090;-59
2022/02/05 05:20:16;;;;;;;12.40;6.30;;;;;;;0.14;49.85;100390.61;1727773;81;21024;-58
2022/02/05 05:22:43;;;;;;;9.50;6.20;;;;;;;0.16;49.63;100388.34;1701313;81;21075;-58
2022/02/05 05:25:09;;;;;;;12.43;6.78;;;;;;;0.15;49.53;100390.55;1716118;81;21071;-58
2022/02/05 05:27:37;;;;;;;12.95;6.80;;;;;;;0.14;49.63;100387.55;1718574;82;21581;-58
2022/02/05 05:30:06;;;;;;;12.30;6.80;;;;;;;0.18;49.76;100382.67;1699339;81;22121;-58
2022/02/05 05:32:34;;;;;;;12.90;6.47;;;;;;;0.22;49.67;100386.42;1721072;81;21042;-59
2022/02/05 05:35:04;;;;;;;11.63;6.20;;;;;;;0.25;49.53;100391.48;1724547;81;21040;-59
2022/02/05 05:37:31;;;;;;;13.28;7.60;;;;;;;0.23;49.40;100385.53;1694674;81;21059;-59
2022/02/05 05:39:58;;;;;;;14.40;7.37;;;;;;;0.23;49.40;100385.53;1723299;82;21106;-59
2022/02/05 05:42:28;;;;;;;10.50;5.95;;;;;;;0.27;49.60;100387.95;1722492;81;21132;-59
2022/02/05 05:52:23;;;;;;;14.63;7.67;;;;;;;0.29;49.74;100390.49;1722342;81;21048;-59
2022/02/05 05:54:49;;;;;;;15.80;7.62;;;;;;;0.33;49.88;100389.00;1685307;82;21059;-60
2022/02/05 05:57:16;;;;;;;11.25;6.90;;;;;;;0.38;49.90;100385.41;1707372;82;21442;-59
2022/02/05 05:59:43;;;;;;;15.03;7.45;;;;;;;0.43;49.92;100385.63;1720325;81;21040;-59
2022/02/05 06:02:10;;;;;;;15.70;6.55;;;;;;;0.43;49.92;100385.63;1727616;81;20979;-59
2022/02/05 06:04:37;;;;;;;14.38;6.92;;;;;;;0.46;49.92;100387.27;1705475;82;20893;-60
2022/02/05 06:07:04;;;;;;;10.45;5.92;;;;;;;0.48;49.89;100388.88;1724584;82;21086;-60
2022/02/05 06:09:33;;;;;;;13.70;5.70;;;;;;;0.48;49.95;100391.92;1721065;81;21090;-60
2022/02/05 06:12:01;;;;;;;11.93;7.35;;;;;;;0.50;50.08;100378.00;1721861;81;21494;-59
2022/02/05 06:14:28;;;;;;;10.60;6.50;;;;;;;0.49;50.27;100371.16;1717151;81;21476;-60
2022/02/05 06:17:04;;;;;;;9.83;5.37;;;;;;;0.48;50.38;100366.88;1719451;81;20998;-60
2022/02/05 06:19:26;;;;;;;11.35;5.92;;;;;;;0.56;50.42;100358.82;1719438;81;21104;-60
2022/02/05 06:21:54;;;;;;;13.22;6.58;;;;;;;0.56;50.42;100358.82;1720155;82;21982;-60
2022/02/05 06:24:20;;;;;;;10.43;5.53;;;;;;;0.60;50.41;100367.30;1724205;81;22067;-59
2022/02/05 06:26:46;;;;;;;10.30;5.53;;;;;;;0.64;50.44;100365.84;1703111;82;20996;-58
2022/02/05 06:29:13;;;;;;;12.50;6.97;;;;;;;0.67;50.65;100357.95;1711599;81;20885;-59
2022/02/05 06:31:40;;;;;;;13.40;6.92;;;;;;;0.70;50.75;100355.22;1724301;81;21131;-59
2022/02/05 06:34:06;;;;;;;13.00;7.37;;;;;;;0.73;50.62;100353.81;1718318;81;21036;-60
2022/02/05 06:36:34;;;;;;;14.00;6.90;;;;;;;0.81;50.58;100352.22;1663574;84;20996;-59
2022/02/05 06:39:01;;;;;;;10.98;6.08;;;;;;;0.85;50.61;100349.05;1718979;82;21027;-60
2022/02/05 06:41:28;;;;;;;10.65;5.45;;;;;;;0.84;50.51;100350.80;1721186;82;21059;-59
2022/02/05 06:43:54;;;;;;;14.25;7.25;;;;;;;0.83;50.58;100352.16;1718572;82;21113;-59
2022/02/05 06:46:20;;;;;;;11.65;6.90;;;;;;;0.80;50.81;100353.11;1727880;81;20976;-60
2022/02/05 06:48:47;;;;;;;12.30;6.50;;;;;;;0.82;51.06;100345.28;1727022;82;21040;-59
2022/02/05 06:51:13;;;;;;;9.93;6.67;;;;;;;0.82;51.06;100345.28;1716756;82;21062;-58
2022/02/05 06:53:40;;;;;;;11.48;6.83;;;;;;;0.91;50.93;100343.17;1716874;81;21432;-59
2022/02/05 06:56:06;;;;;;;13.95;7.53;;;;;;;0.95;51.06;100343.88;1720798;82;21555;-57
2022/02/05 06:58:33;;;;;;;10.25;6.42;;;;;;;1.03;50.88;100343.58;1719771;81;21066;-58
2022/02/05 07:01:00;;;;;;;11.30;6.03;;;;;;;1.05;50.81;100344.36;1707936;82;21122;-58
2022/02/05 07:03:26;;;;;;;12.95;6.87;;;;;;;1.08;50.94;100345.06;1698392;82;21141;-57
2022/02/05 07:05:56;;;;;;;12.23;6.58;;;;;;;1.09;50.92;100338.13;1722899;82;21694;-57
2022/02/05 07:08:22;;;;;;;11.85;7.12;;;;;;;1.08;50.83;100348.13;1694553;82;21099;-57
2022/02/05 07:10:51;;;;;;;17.57;7.30;;;;;;;1.12;51.11;100330.23;1720741;82;20961;-57
2022/02/05 07:13:20;;;;;;;13.28;6.97;;;;;;;1.15;51.09;100330.11;1722751;82;21042;-57
2022/02/05 07:15:58;;;;;;;11.45;6.35;;;;;;;1.20;50.98;100336.40;1716882;82;21027;-58
2022/02/05 07:20:54;;;;;;;12.93;6.42;;;;;;;1.21;51.02;100332.88;1682924;82;21185;-59
2022/02/05 07:31:18;;;;;;;11.40;6.28;;;;;;;1.23;51.18;100329.33;1717169;82;21126;-58
2022/02/05 07:33:45;;;;;;;12.63;6.42;;;;;;;1.18;51.38;100327.39;1717588;82;21202;-58
2022/02/05 07:36:12;;;;;;;9.98;6.20;;;;;;;1.14;51.46;100316.75;1688492;82;21072;-57
2022/02/05 07:38:40;;;;;;;14.03;7.78;;;;;;;1.16;51.72;100318.84;1721523;81;21054;-58
2022/02/05 07:41:07;;;;;;;11.03;6.12;;;;;;;1.17;51.84;100307.55;1716929;82;21059;-58
2022/02/05 07:43:35;;;;;;;12.70;7.28;;;;;;;1.20;51.97;100300.11;1726341;81;21007;-58
2022/02/05 07:46:03;;;;;;;12.00;6.65;;;;;;;1.25;52.23;100303.34;1724956;81;22147;-59
2022/02/05 07:48:34;;;;;;;17.10;6.87;;;;;;;1.32;52.32;100293.56;1722122;82;21047;-59
2022/02/05 07:51:02;;;;;;;15.90;8.40;;;;;;;1.32;52.24;100292.27;1705266;82;21463;-60
2022/02/05 07:53:30;;;;;;;15.90;7.20;;;;;;;1.33;52.44;100296.52;1717710;81;21146;-60
2022/02/05 07:55:58;;;;;;;11.40;6.87;;;;;;;1.33;52.62;100292.63;1721427;81;21074;-58
2022/02/05 07:58:25;;;;;;;10.93;6.95;;;;;;;1.41;52.85;100283.64;1719831;82;21568;-60
2022/02/05 08:00:54;;;;;;;11.50;6.78;;;;;;;1.45;52.96;100279.16;1720045;82;21453;-60
2022/02/05 08:03:21;;;;;;;11.33;5.87;;;;;;;1.51;52.98;100280.16;1714678;82;21051;-59
2022/02/05 08:05:48;;;;;;;12.35;6.47;;;;;;;1.51;52.78;100276.73;1721333;81;21074;-60
2022/02/05 08:08:18;;;;;;;11.57;6.40;;;;;;;1.50;52.92;100278.50;1702399;82;21100;-59
2022/02/05 08:10:54;;;;;;;10.75;6.03;;;;;;;1.51;53.00;100274.14;1716951;82;21037;-56
2022/02/05 08:13:13;;;;;;;10.68;5.80;;;;;;;1.53;53.08;100264.54;1711873;82;21115;-57
2022/02/05 08:15:50;;;;;;;10.15;6.05;;;;;;;1.57;53.03;100257.03;1721118;82;21105;-56
2022/02/05 08:18:10;;;;;;;10.05;6.72;;;;;;;1.59;53.21;100261.22;1718356;81;21131;-59
2022/02/05 08:20:37;;;;;;;12.37;6.00;;;;;;;1.61;53.36;100254.20;1725543;81;21011;-58
2022/02/05 08:23:03;;;;;;;11.85;6.90;;;;;;;1.62;53.56;100246.82;1720012;81;21108;-58
2022/02/05 08:25:30;;;;;;;12.65;6.25;;;;;;;1.67;53.77;100246.63;1703028;82;21600;-59
2022/02/05 08:27:57;;;;;;;14.80;8.10;;;;;;;1.69;53.76;100251.28;1721140;81;21059;-59
2022/02/05 08:30:23;;;;;;;12.65;6.90;;;;;;;1.72;53.55;100242.53;1723895;82;21051;-58
2022/02/05 08:32:50;;;;;;;11.12;6.12;;;;;;;1.71;53.79;100243.43;1717699;81;21105;-58
2022/02/05 08:35:19;;;;;;;14.35;8.20;;;;;;;1.75;53.86;100239.77;1722859;82;21077;-58
2022/02/05 08:37:46;;;;;;;14.58;8.85;;;;;;;1.72;53.85;100232.16;1717364;81;21596;-59
2022/02/05 08:40:12;;;;;;;11.38;6.37;;;;;;;1.71;53.94;100233.88;1680997;82;21029;-58
2022/02/05 08:42:39;;;;;;;13.38;7.25;;;;;;;1.72;54.39;100238.17;1714720;81;22063;-59
2022/02/05 08:45:07;;;;;;;15.78;8.45;;;;;;;1.72;54.52;100229.09;1696899;82;21572;-59
2022/02/05 08:47:34;;;;;;;13.65;8.00;;;;;;;1.70;54.80;100223.58;1691705;82;21094;-59
2022/02/05 08:50:02;;;;;;;15.40;8.00;;;;;;;1.70;55.06;100222.28;1694050;82;21064;-59
2022/02/05 08:52:28;;;;;;;13.58;7.92;;;;;;;1.63;55.29;100223.87;1700784;82;21095;-56
2022/02/05 08:54:55;;;;;;;13.90;7.70;;;;;;;1.61;55.69;100221.78;1702640;82;21064;-56
2022/02/05 08:57:21;;;;;;;14.23;7.45;;;;;;;1.60;55.81;100223.17;1685507;83;21087;-58
2022/02/05 09:00:00;;;;;;;13.53;6.55;;;;;;;1.62;56.07;100212.27;1693746;83;21194;-59
2022/02/05 09:05:15;;;;;;;10.63;6.53;;;;;;;1.55;56.19;100213.01;1702857;82;20992;-59
2022/02/05 09:07:37;;;;;;;14.58;8.30;;;;;;;1.51;56.57;100213.20;1698753;82;21091;-59
2022/02/05 09:10:13;;;;;;;11.50;6.67;;;;;;;1.50;56.88;100212.38;1701396;82;21059;-59
2022/02/05 09:15:06;;;;;;;15.68;8.35;;;;;;;1.53;56.87;100212.23;1703879;82;21084;-59
2022/02/05 09:17:33;;;;;;;15.83;8.65;;;;;;;1.57;56.96;100209.87;1698124;82;21143;-59
2022/02/05 09:19:59;;;;;;;12.58;7.97;;;;;;;1.58;57.08;100204.23;1695302;82;21079;-58
2022/02/05 09:22:29;;;;;;;14.65;8.40;;;;;;;1.61;56.84;100197.14;1700228;82;21011;-58
2022/02/05 09:24:58;;;;;;;17.65;8.60;;;;;;;1.61;57.06;100202.80;1703628;82;21140;-58
2022/02/05 09:27:27;;;;;;;16.45;8.43;;;;;;;1.62;57.05;100196.24;1700076;82;21102;-58
2022/02/05 09:30:02;;;;;;;12.10;6.97;;;;;;;1.67;57.06;100196.87;1701624;82;21578;-58
2022/02/05 09:32:27;;;;;;;13.58;8.03;;;;;;;1.71;57.24;100187.19;1676003;83;21108;-59
2022/02/05 09:34:54;;;;;;;16.60;9.10;;;;;;;1.76;57.08;100185.22;1701904;82;21055;-59
2022/02/05 09:37:21;;;;;;;17.05;8.13;;;;;;;1.82;57.13;100180.22;1696980;82;21236;-60
2022/02/05 09:39:48;;;;;;;15.90;9.53;;;;;;;1.85;56.96;100176.20;1698266;82;21172;-59
2022/02/05 09:42:15;;;;;;;13.65;9.03;;;;;;;1.86;57.04;100169.60;1692906;82;21107;-60
2022/02/05 09:44:41;;;;;;;16.93;9.30;;;;;;;1.90;57.04;100166.44;1719466;82;21063;-59
2022/02/05 09:47:08;;;;;;;16.02;10.23;;;;;;;1.91;57.22;100161.61;1722837;82;21006;-59
2022/02/05 09:49:35;;;;;;;17.57;10.82;;;;;;;1.92;57.15;100159.41;1718519;81;21224;-58
2022/02/05 09:52:11;;;;;;;15.43;8.53;;;;;;;1.95;57.18;100163.59;1722445;81;21576;-59
2022/02/05 09:54:38;;;;;;;14.73;8.35;;;;;;;1.96;57.12;100154.91;1711975;82;21055;-58
2022/02/05 09:57:06;;;;;;;18.77;9.20;;;;;;;1.91;57.30;100147.80;1706530;82;21335;-58
2022/02/05 09:59:50;;;;;;;13.50;8.85;;;;;;;1.91;57.30;100147.80;1710655;82;21109;-58
2022/02/05 10:02:23;;;;;;;16.62;9.95;;;;;;;1.91;57.49;100148.63;1722093;81;21154;-57
2022/02/05 10:05:05;;;;;;;14.60;8.85;;;;;;;1.89;57.69;100143.98;1718082;81;21121;-57
2022/02/05 10:07:31;;;;;;;14.25;8.33;;;;;;;1.94;57.74;100145.06;1725013;81;21047;-59
2022/02/05 10:10:03;;;;;;;17.60;9.78;;;;;;;1.94;57.84;100141.17;1700677;81;21369;-59
2022/02/05 10:12:30;;;;;;;12.90;6.47;;;;;;;1.96;57.92;100142.77;1717481;81;21043;-59
2022/02/05 10:14:57;;;;;;;17.30;8.63;;;;;;;1.96;57.83;100129.79;1719347;81;21115;-58
2022/02/05 10:17:41;;;;;;;14.05;7.62;;;;;;;1.96;57.92;100136.28;1703068;82;21464;-59
2022/02/05 10:20:09;;;;;;;15.00;8.50;;;;;;;1.96;57.95;100136.28;1718448;82;21115;-58
2022/02/05 10:22:43;;;;;;;12.82;7.78;;;;;;;1.97;58.15;100139.73;1719801;81;21051;-59
2022/02/05 10:25:22;;;;;;;13.85;7.78;;;;;;;1.98;58.19;100130.55;1725302;81;21101;-59
2022/02/05 10:27:49;;;;;;;14.20;8.58;;;;;;;2.00;58.13;100133.08;1724535;81;21221;-58
2022/02/05 10:30:27;;;;;;;12.58;7.30;;;;;;;1.98;58.39;100129.72;1697364;82;21070;-58
2022/02/05 10:33:10;;;;;;;13.95;8.48;;;;;;;1.92;58.53;100126.98;1693480;82;21146;-58
2022/02/05 10:36:11;;;;;;;14.50;7.60;;;;;;;1.92;58.72;100126.98;1697833;81;21086;-60
2022/02/05 10:44:12;;;;;;;12.63;7.37;;;;;;;1.96;58.69;100119.41;1700018;82;21067;-59
2022/02/05 10:46:42;;;;;;;17.65;9.28;;;;;;;1.98;58.71;100111.55;1715042;81;21074;-60
2022/02/05 10:49:07;;;;;;;22.15;8.13;;;;;;;1.97;58.79;100108.13;1720026;81;21721;-60
2022/02/05 10:51:46;;;;;;;17.35;9.23;;;;;;;2.01;58.88;100101.86;1684878;83;22248;-59
2022/02/05 10:54:37;;;;;;;12.75;8.58;;;;;;;2.04;58.82;100109.50;1728554;81;21105;-60
2022/02/05 10:56:59;;;;;;;11.35;7.17;;;;;;;2.10;58.73;100104.92;1721521;81;21051;-59
2022/02/05 10:59:49;;;;;;;12.05;7.62;;;;;;;2.13;58.85;100105.61;1724273;81;21078;-59
2022/02/05 11:07:28;;;;;;;14.55;8.13;;;;;;;2.24;58.72;100076.53;1705322;82;21260;-60
2022/02/05 11:10:00;;;;;;;15.18;8.40;;;;;;;2.24;58.82;100076.53;1636991;85;21040;-60
2022/02/05 11:20:12;;;;;;;22.93;12.93;;;;;;;2.51;58.58;100058.70;1721137;82;21144;-60
2022/02/05 11:22:42;;;;;;;18.55;11.20;;;;;;;2.60;58.43;100062.57;1722657;82;21499;-60
2022/02/05 11:25:10;;;;;;;20.17;10.60;;;;;;;2.60;58.33;100050.88;1703961;82;21027;-59
2022/02/05 11:27:45;;;;;;;23.83;11.75;;;;;;;2.63;58.44;100054.63;1713416;82;21600;-59
2022/02/05 11:30:32;;;;;;;14.13;9.30;;;;;;;2.64;58.66;100051.55;1721702;81;21045;-61
2022/02/05 11:33:06;;;;;;;17.77;10.03;;;;;;;2.69;58.77;100049.12;1713578;82;22331;-60
2022/02/05 11:35:45;;;;;;;15.32;9.18;;;;;;;2.71;58.82;100055.53;1722798;81;21028;-59
2022/02/05 11:38:03;;;;;;;12.95;8.15;;;;;;;2.71;58.85;100042.55;1703568;82;21702;-61
2022/02/05 11:40:55;;;;;;;13.90;8.73;;;;;;;2.70;58.90;100036.48;1722420;81;21091;-60
2022/02/05 11:43:31;;;;;;;13.35;8.88;;;;;;;2.70;58.80;100035.19;1705538;81;21108;-59
2022/02/05 11:46:14;;;;;;;16.05;8.50;;;;;;;2.69;58.71;100029.63;1715910;82;20993;-60
2022/02/05 11:48:56;;;;;;;15.05;8.40;;;;;;;2.69;58.58;100024.44;1715744;81;21082;-58
2022/02/05 11:51:27;;;;;;;14.58;8.78;;;;;;;2.65;58.75;100022.07;1716715;81;21508;-59
2022/02/05 11:54:05;;;;;;;16.07;8.00;;;;;;;2.60;59.31;100021.01;1684453;82;21143;-59
2022/02/05 11:57:01;;;;;;;13.78;8.68;;;;;;;2.60;59.25;100024.91;1711463;81;21181;-59
2022/02/05 11:59:46;;;;;;;14.00;8.85;;;;;;;2.60;59.20;100018.41;1712881;82;21103;-59
2022/02/05 12:02:20;;;;;;;15.30;8.30;;;;;;;2.59;59.19;100024.08;1714107;82;21153;-59
2022/02/05 12:04:43;;;;;;;13.72;8.08;;;;;;;2.60;58.86;100021.01;1714950;81;21094;-59
2022/02/05 12:07:11;;;;;;;12.73;7.90;;;;;;;2.59;58.89;100003.77;1715330;81;21328;-59
2022/02/05 12:09:44;;;;;;;14.65;7.87;;;;;;;2.60;58.98;100001.05;1717400;81;21082;-61
2022/02/05 12:12:36;;;;;;;14.55;7.87;;;;;;;2.62;58.94;99986.69;1718466;80;21123;-58
2022/02/05 12:15:17;;;;;;;12.43;6.87;;;;;;;2.63;58.77;99983.19;1680094;83;21055;-60
2022/02/05 12:20:33;;;;;;;13.05;7.47;;;;;;;2.61;58.82;99974.64;1719943;81;21070;-61
2022/02/05 12:23:18;;;;;;;17.05;8.75;;;;;;;2.56;58.52;99973.58;1722778;81;21078;-60
2022/02/05 12:26:01;;;;;;;15.05;9.03;;;;;;;2.55;58.80;99968.00;1717105;81;21980;-60
2022/02/05 12:28:33;;;;;;;13.85;7.87;;;;;;;2.56;58.87;99968.39;1712825;82;21060;-59
2022/02/05 12:31:04;;;;;;;17.30;9.25;;;;;;;2.57;58.77;99957.53;1721482;81;21058;-60
2022/02/05 12:33:55;;;;;;;14.18;9.38;;;;;;;2.56;58.71;99958.47;1716609;82;21554;-59
2022/02/05 12:36:40;;;;;;;11.30;7.30;;;;;;;2.59;58.47;99964.80;1719107;82;21099;-59
2022/02/05 12:39:10;;;;;;;14.75;8.23;;;;;;;2.59;58.46;99964.80;1702522;82;21279;-58
2022/02/05 12:41:38;;;;;;;13.20;7.70;;;;;;;2.59;58.37;99970.00;1723458;82;21044;-59
2022/02/05 12:44:07;;;;;;;15.05;7.22;;;;;;;2.59;58.63;99964.33;1722772;80;21119;-59
2022/02/05 12:46:48;;;;;;;16.37;8.73;;;;;;;2.63;58.68;99968.90;1717464;81;21577;-59
2022/02/05 12:49:32;;;;;;;15.70;8.78;;;;;;;2.65;58.37;99970.12;1686255;82;21031;-59
2022/02/05 12:51:57;;;;;;;12.93;8.28;;;;;;;2.63;58.47;99971.50;1720346;81;22016;-59
2022/02/05 12:54:26;;;;;;;15.90;8.90;;;;;;;2.68;58.32;99971.26;1728304;82;21091;-59
2022/02/05 12:56:54;;;;;;;16.73;9.03;;;;;;;2.66;58.47;99960.95;1704804;82;21528;-59
2022/02/05 12:59:27;;;;;;;16.17;7.85;;;;;;;2.68;58.34;99965.59;1720434;82;22044;-59
2022/02/05 13:02:00;;;;;;;15.75;7.60;;;;;;;2.67;58.49;99965.20;1725157;81;21535;-59
2022/02/05 13:04:32;;;;;;;11.03;6.42;;;;;;;2.70;58.40;99966.81;1723096;81;21799;-61
2022/02/05 13:07:16;;;;;;;14.35;8.18;;;;;;;2.68;58.51;99964.30;1722150;82;21119;-61
2022/02/05 13:09:50;;;;;;;16.67;8.63;;;;;;;2.69;58.41;99972.91;1710473;81;21119;-59
2022/02/05 13:12:22;;;;;;;13.98;8.55;;;;;;;2.68;58.59;99960.39;1640393;85;21088;-59
2022/02/05 13:15:05;;;;;;;14.13;8.05;;;;;;;2.72;58.59;99953.27;1703470;82;21053;-58
2022/02/05 13:17:50;;;;;;;16.40;9.18;;;;;;;2.71;58.63;99955.04;1727834;82;21160;-59
2022/02/05 13:38:54;;;;;;;14.00;8.63;;;;;;;2.78;58.90;99916.09;1718555;82;21135;-60
2022/02/05 13:41:08;;;;;;;16.75;10.50;;;;;;;2.78;58.76;99921.30;1711567;82;21534;-60
2022/02/05 13:43:43;;;;;;;13.05;8.33;;;;;;;2.78;58.88;99923.06;1711242;82;22336;-60
2022/02/05 13:46:17;;;;;;;14.38;7.97;;;;;;;2.78;58.94;99923.89;1705710;82;21041;-59
2022/02/05 13:48:44;;;;;;;26.27;7.45;;;;;;;2.79;58.94;99924.28;1700533;82;21265;-59
2022/02/05 13:51:11;;;;;;;12.28;7.37;;;;;;;2.83;58.98;99924.95;1721031;82;21063;-59
2022/02/05 13:53:55;;;;;;;13.50;7.58;;;;;;;2.81;58.87;99924.64;1726785;80;21059;-60
2022/02/05 13:56:22;;;;;;;13.00;7.78;;;;;;;2.79;58.99;99919.52;1725773;81;21155;-59
2022/02/05 13:58:48;;;;;;;13.00;7.53;;;;;;;2.79;58.96;99919.52;1701012;82;21049;-60
2022/02/05 14:01:35;;;;;;;14.85;8.20;;;;;;;2.77;59.20;99914.88;1703142;82;21043;-60
2022/02/05 14:04:19;;;;;;;12.40;6.72;;;;;;;2.75;59.37;99898.55;1707762;82;21073;-58
2022/02/05 14:06:57;;;;;;;15.00;7.55;;;;;;;2.74;59.44;99916.34;1719365;82;21149;-59
2022/02/05 14:09:36;;;;;;;16.40;8.05;;;;;;;2.74;59.66;99918.50;1720182;81;21151;-60
2022/02/05 14:13:38;;;;;;;15.68;9.08;;;;;;;2.65;60.22;99910.37;1792138;78;22828;-60
2022/02/05 14:16:05;;;;;;;15.30;8.15;;;;;;;2.69;60.05;99916.62;1771533;80;21565;-60
2022/02/05 14:18:58;;;;;;;12.85;7.78;;;;;;;2.71;60.05;99913.47;1772878;80;21539;-60
2022/02/05 14:21:18;;;;;;;;;;;;;;;2.71;60.04;99916.06;1756731;80;21008;-59
2022/02/05 14:23:53;;;;;;;11.78;6.37;;;;;;;2.69;60.23;99912.72;1745477;80;28871;-59
2022/02/05 14:26:31;;;;;;;12.43;7.23;;;;;;;2.65;60.40;99929.85;1738153;80;21070;-60
2022/02/05 14:28:59;;;;;;;15.80;9.03;;;;;;;2.59;60.54;99929.27;1773113;78;21497;-60